sensor_id;sensor_type;location;lat;lon;timestamp;pressure;altitude;pressure_sealevel;temperature;humidity
20860;BME280;10590;48.154;11.514;2023-09-19T00:03:15;95395.34;;;17.35;72.08
20860;BME280;10590;48.154;11.514;2023-09-19T00:08:37;95401.16;;;17.37;71.33
20860;BME280;10590;48.154;11.514;2023-09-19T00:13:59;95384.59;;;17.38;71.11
20860;BME280;10590;48.154;11.514;2023-09-19T00:19:22;95391.28;;;17.48;70.81
20860;BME280;10590;48.154;11.514;2023-09-19T00:24:45;95382.69;;;17.39;70.24
20860;BME280;10590;48.154;11.514;2023-09-19T00:30:09;95391.06;;;17.60;70.16
20860;BME280;10590;48.154;11.514;2023-09-19T00:35:37;95368.25;;;17.28;69.92
20860;BME280;10590;48.154;11.514;2023-09-19T00:40:59;95381.97;;;17.42;71.04
20860;BME280;10590;48.154;11.514;2023-09-19T00:46:21;95405.28;;;17.57;71.46
20860;BME280;10590;48.154;11.514;2023-09-19T00:51:44;95419.34;;;17.43;71.01
20860;BME280;10590;48.154;11.514;2023-09-19T00:57:08;95421.59;;;17.38;71.64
20860;BME280;10590;48.154;11.514;2023-09-19T01:02:30;95437.72;;;17.34;72.71
20860;BME280;10590;48.154;11.514;2023-09-19T01:07:53;95416.31;;;17.22;73.05
20860;BME280;10590;48.154;11.514;2023-09-19T01:13:22;95437.84;;;17.18;74.58
20860;BME280;10590;48.154;11.514;2023-09-19T01:18:57;95433.00;;;17.05;75.40
20860;BME280;10590;48.154;11.514;2023-09-19T01:24:46;95451.63;;;17.13;75.22
20860;BME280;10590;48.154;11.514;2023-09-19T01:30:15;95457.50;;;16.96;75.83
20860;BME280;10590;48.154;11.514;2023-09-19T01:35:38;95458.28;;;16.97;75.36
20860;BME280;10590;48.154;11.514;2023-09-19T01:41:04;95441.22;;;16.89;74.94
20860;BME280;10590;48.154;11.514;2023-09-19T01:46:34;95454.81;;;16.96;75.47
20860;BME280;10590;48.154;11.514;2023-09-19T01:52:03;95485.84;;;17.09;75.21
20860;BME280;10590;48.154;11.514;2023-09-19T01:57:28;95467.81;;;16.91;74.94
20860;BME280;10590;48.154;11.514;2023-09-19T02:02:54;95430.38;;;16.85;74.29
20860;BME280;10590;48.154;11.514;2023-09-19T02:08:19;95470.56;;;17.17;73.72
20860;BME280;10590;48.154;11.514;2023-09-19T02:13:41;95480.97;;;17.18;73.19
20860;BME280;10590;48.154;11.514;2023-09-19T02:19:04;95475.59;;;17.18;73.30
20860;BME280;10590;48.154;11.514;2023-09-19T02:24:26;95472.19;;;16.99;74.26
20860;BME280;10590;48.154;11.514;2023-09-19T02:29:48;95471.41;;;16.98;74.54
20860;BME280;10590;48.154;11.514;2023-09-19T02:35:11;95457.25;;;16.82;74.32
20860;BME280;10590;48.154;11.514;2023-09-19T02:40:35;95447.72;;;16.65;75.08
20860;BME280;10590;48.154;11.514;2023-09-19T02:45:57;95462.66;;;16.82;74.64
20860;BME280;10590;48.154;11.514;2023-09-19T02:51:20;95458.94;;;16.67;74.47
20860;BME280;10590;48.154;11.514;2023-09-19T02:56:42;95452.16;;;16.77;75.04
20860;BME280;10590;48.154;11.514;2023-09-19T03:02:04;95486.72;;;16.94;74.40
20860;BME280;10590;48.154;11.514;2023-09-19T03:07:27;95481.50;;;16.82;75.07
20860;BME280;10590;48.154;11.514;2023-09-19T03:12:50;95465.78;;;16.65;75.32
20860;BME280;10590;48.154;11.514;2023-09-19T03:18:12;95471.53;;;16.44;75.59
20860;BME280;10590;48.154;11.514;2023-09-19T03:23:35;95472.94;;;16.38;75.60
20860;BME280;10590;48.154;11.514;2023-09-19T03:28:58;95486.66;;;16.48;74.88
20860;BME280;10590;48.154;11.514;2023-09-19T03:34:20;95486.72;;;16.52;74.70
20860;BME280;10590;48.154;11.514;2023-09-19T03:39:43;95482.47;;;16.51;74.63
20860;BME280;10590;48.154;11.514;2023-09-19T03:45:06;95487.50;;;16.52;73.63
20860;BME280;10590;48.154;11.514;2023-09-19T03:50:31;95497.00;;;16.66;73.91
20860;BME280;10590;48.154;11.514;2023-09-19T03:55:55;95499.13;;;16.76;73.62
20860;BME280;10590;48.154;11.514;2023-09-19T04:01:17;95481.03;;;16.57;74.63
20860;BME280;10590;48.154;11.514;2023-09-19T04:06:39;95506.91;;;16.62;74.68
20860;BME280;10590;48.154;11.514;2023-09-19T04:12:02;95506.78;;;16.54;74.36
20860;BME280;10590;48.154;11.514;2023-09-19T04:17:25;95511.31;;;16.50;74.40
20860;BME280;10590;48.154;11.514;2023-09-19T04:22:46;95515.63;;;16.55;74.60
20860;BME280;10590;48.154;11.514;2023-09-19T04:28:09;95519.47;;;16.54;74.97
20860;BME280;10590;48.154;11.514;2023-09-19T04:33:31;95511.84;;;16.40;74.04
20860;BME280;10590;48.154;11.514;2023-09-19T04:38:55;95511.84;;;16.40;74.95
20860;BME280;10590;48.154;11.514;2023-09-19T04:44:20;95530.00;;;16.43;74.43
20860;BME280;10590;48.154;11.514;2023-09-19T04:49:42;95545.78;;;16.45;74.66
20860;BME280;10590;48.154;11.514;2023-09-19T04:55:04;95554.84;;;16.52;74.62
20860;BME280;10590;48.154;11.514;2023-09-19T05:00:28;95561.28;;;16.48;74.40
20860;BME280;10590;48.154;11.514;2023-09-19T05:05:51;95534.53;;;16.39;73.66
20860;BME280;10590;48.154;11.514;2023-09-19T05:11:12;95568.44;;;16.60;73.32
20860;BME280;10590;48.154;11.514;2023-09-19T05:16:35;95576.31;;;16.49;73.32
20860;BME280;10590;48.154;11.514;2023-09-19T05:21:57;95577.50;;;16.51;73.00
20860;BME280;10590;48.154;11.514;2023-09-19T05:27:19;95590.84;;;16.64;72.58
20860;BME280;10590;48.154;11.514;2023-09-19T05:32:42;95602.59;;;16.55;73.48
20860;BME280;10590;48.154;11.514;2023-09-19T05:38:04;95576.19;;;16.45;72.68
20860;BME280;10590;48.154;11.514;2023-09-19T05:43:29;95590.56;;;16.49;73.51
20860;BME280;10590;48.154;11.514;2023-09-19T05:48:52;95611.22;;;16.45;72.95
20860;BME280;10590;48.154;11.514;2023-09-19T05:54:13;95599.00;;;16.48;73.06
20860;BME280;10590;48.154;11.514;2023-09-19T05:59:35;95618.88;;;16.98;71.71
20860;BME280;10590;48.154;11.514;2023-09-19T06:04:58;95614.59;;;17.35;70.41
20860;BME280;10590;48.154;11.514;2023-09-19T06:10:20;95629.72;;;17.63;69.09
20860;BME280;10590;48.154;11.514;2023-09-19T06:15:43;95624.78;;;17.45;69.38
20860;BME280;10590;48.154;11.514;2023-09-19T06:21:06;95623.47;;;17.36;69.98
20860;BME280;10590;48.154;11.514;2023-09-19T06:26:28;95620.97;;;17.46;69.64
20860;BME280;10590;48.154;11.514;2023-09-19T06:31:51;95600.19;;;17.28;69.59
20860;BME280;10590;48.154;11.514;2023-09-19T06:37:14;95629.84;;;17.47;69.95
20860;BME280;10590;48.154;11.514;2023-09-19T06:42:36;95638.06;;;17.54;69.32
20860;BME280;10590;48.154;11.514;2023-09-19T06:47:58;95646.97;;;17.77;68.50
20860;BME280;10590;48.154;11.514;2023-09-19T06:53:22;95644.25;;;17.77;68.82
20860;BME280;10590;48.154;11.514;2023-09-19T06:58:44;95657.50;;;21.02;58.00
20860;BME280;10590;48.154;11.514;2023-09-19T07:04:06;95651.47;;;19.32;62.41
20860;BME280;10590;48.154;11.514;2023-09-19T07:09:29;95658.56;;;18.27;67.04
20860;BME280;10590;48.154;11.514;2023-09-19T07:14:51;95663.38;;;18.14;68.68
20860;BME280;10590;48.154;11.514;2023-09-19T07:20:13;95686.16;;;18.17;67.96
20860;BME280;10590;48.154;11.514;2023-09-19T07:25:37;95683.41;;;18.36;65.73
20860;BME280;10590;48.154;11.514;2023-09-19T07:31:01;95667.72;;;18.72;65.99
20860;BME280;10590;48.154;11.514;2023-09-19T07:36:23;95674.72;;;20.14;61.00
20860;BME280;10590;48.154;11.514;2023-09-19T07:41:47;95673.78;;;19.22;63.91
20860;BME280;10590;48.154;11.514;2023-09-19T07:47:09;95680.66;;;19.16;64.62
20860;BME280;10590;48.154;11.514;2023-09-19T07:52:30;95685.28;;;19.49;64.00
20860;BME280;10590;48.154;11.514;2023-09-19T07:57:55;95685.44;;;20.44;60.78
20860;BME280;10590;48.154;11.514;2023-09-19T08:03:17;95684.94;;;21.77;56.22
20860;BME280;10590;48.154;11.514;2023-09-19T08:08:39;95668.09;;;20.56;61.56
20860;BME280;10590;48.154;11.514;2023-09-19T08:14:02;95688.91;;;19.60;64.09
20860;BME280;10590;48.154;11.514;2023-09-19T08:19:26;95701.72;;;19.63;64.06
20860;BME280;10590;48.154;11.514;2023-09-19T08:24:48;95694.00;;;21.15;57.88
20860;BME280;10590;48.154;11.514;2023-09-19T08:30:13;95684.97;;;22.83;52.21
20860;BME280;10590;48.154;11.514;2023-09-19T08:35:35;95690.41;;;25.57;45.26
20860;BME280;10590;48.154;11.514;2023-09-19T08:40:58;95697.13;;;25.18;44.96
20860;BME280;10590;48.154;11.514;2023-09-19T08:46:25;95689.00;;;25.15;45.38
20860;BME280;10590;48.154;11.514;2023-09-19T08:51:54;95695.59;;;25.17;44.79
20860;BME280;10590;48.154;11.514;2023-09-19T08:57:19;95690.06;;;25.55;44.11
20860;BME280;10590;48.154;11.514;2023-09-19T09:02:43;95663.06;;;21.27;54.08
20860;BME280;10590;48.154;11.514;2023-09-19T09:08:07;95710.41;;;20.23;58.60
20860;BME280;10590;48.154;11.514;2023-09-19T09:13:34;95692.69;;;23.10;48.91
20860;BME280;10590;48.154;11.514;2023-09-19T09:18:58;95696.09;;;20.78;55.23
20860;BME280;10590;48.154;11.514;2023-09-19T09:24:26;95693.16;;;22.83;49.85
20860;BME280;10590;48.154;11.514;2023-09-19T09:29:51;95710.28;;;24.44;46.04
20860;BME280;10590;48.154;11.514;2023-09-19T09:35:16;95675.53;;;26.89;40.25
20860;BME280;10590;48.154;11.514;2023-09-19T09:40:48;95700.81;;;25.69;43.62
20860;BME280;10590;48.154;11.514;2023-09-19T09:46:17;95688.22;;;27.62;38.92
20860;BME280;10590;48.154;11.514;2023-09-19T09:52:09;95709.66;;;23.49;46.02
20860;BME280;10590;48.154;11.514;2023-09-19T09:57:37;95685.66;;;23.19;46.21
20860;BME280;10590;48.154;11.514;2023-09-19T10:03:01;95692.41;;;21.04;53.20
20860;BME280;10590;48.154;11.514;2023-09-19T10:08:26;95718.44;;;21.19;53.66
20860;BME280;10590;48.154;11.514;2023-09-19T10:13:51;95712.53;;;23.00;47.90
20860;BME280;10590;48.154;11.514;2023-09-19T10:19:17;95715.69;;;25.64;41.71
20860;BME280;10590;48.154;11.514;2023-09-19T10:24:45;95714.41;;;25.76;41.53
20860;BME280;10590;48.154;11.514;2023-09-19T10:30:10;95717.09;;;23.31;47.41
20860;BME280;10590;48.154;11.514;2023-09-19T10:35:33;95706.63;;;23.26;47.07
20860;BME280;10590;48.154;11.514;2023-09-19T10:41:02;95714.97;;;21.22;52.24
20860;BME280;10590;48.154;11.514;2023-09-19T10:46:25;95718.66;;;23.32;47.14
20860;BME280;10590;48.154;11.514;2023-09-19T10:51:47;95705.28;;;25.86;41.39
20860;BME280;10590;48.154;11.514;2023-09-19T10:57:12;95717.91;;;26.07;41.06
20860;BME280;10590;48.154;11.514;2023-09-19T11:02:37;95708.19;;;27.82;37.30
20860;BME280;10590;48.154;11.514;2023-09-19T11:07:59;95712.44;;;26.34;39.83
20860;BME280;10590;48.154;11.514;2023-09-19T11:13:27;95710.09;;;28.87;35.38
20860;BME280;10590;48.154;11.514;2023-09-19T11:18:52;95690.81;;;27.49;35.39
20860;BME280;10590;48.154;11.514;2023-09-19T11:24:28;95698.47;;;26.99;36.49
20860;BME280;10590;48.154;11.514;2023-09-19T11:30:27;95706.03;;;26.87;37.07
20860;BME280;10590;48.154;11.514;2023-09-19T11:36:03;95704.53;;;25.21;38.67
20860;BME280;10590;48.154;11.514;2023-09-19T11:41:36;95709.47;;;22.91;43.59
20860;BME280;10590;48.154;11.514;2023-09-19T11:47:00;95705.59;;;22.17;47.14
20860;BME280;10590;48.154;11.514;2023-09-19T11:52:24;95682.63;;;21.97;46.51
20860;BME280;10590;48.154;11.514;2023-09-19T11:57:47;95695.09;;;22.51;46.21
20860;BME280;10590;48.154;11.514;2023-09-19T12:03:13;95676.81;;;22.51;45.46
20860;BME280;10590;48.154;11.514;2023-09-19T12:08:36;95699.72;;;22.93;45.58
20860;BME280;10590;48.154;11.514;2023-09-19T12:14:01;95700.47;;;23.01;44.62
20860;BME280;10590;48.154;11.514;2023-09-19T12:19:24;95691.97;;;22.67;44.06
20860;BME280;10590;48.154;11.514;2023-09-19T12:24:47;95688.09;;;22.82;44.56
20860;BME280;10590;48.154;11.514;2023-09-19T12:30:09;95685.72;;;22.95;45.19
20860;BME280;10590;48.154;11.514;2023-09-19T12:35:35;95685.38;;;22.11;46.86
20860;BME280;10590;48.154;11.514;2023-09-19T12:40:59;95683.81;;;22.49;46.79
20860;BME280;10590;48.154;11.514;2023-09-19T12:46:21;95678.78;;;22.37;46.29
20860;BME280;10590;48.154;11.514;2023-09-19T12:51:47;95656.84;;;23.22;44.41
20860;BME280;10590;48.154;11.514;2023-09-19T12:57:08;95691.09;;;23.19;45.12
20860;BME280;10590;48.154;11.514;2023-09-19T13:03:15;95690.81;;;22.21;49.33
20860;BME280;10590;48.154;11.514;2023-09-19T13:08:40;95693.91;;;22.45;49.76
20860;BME280;10590;48.154;11.514;2023-09-19T13:14:18;95682.53;;;21.61;52.52
20860;BME280;10590;48.154;11.514;2023-09-19T13:19:41;95674.84;;;21.81;52.65
20860;BME280;10590;48.154;11.514;2023-09-19T13:25:08;95674.38;;;21.50;52.60
20860;BME280;10590;48.154;11.514;2023-09-19T13:30:37;95666.19;;;21.33;53.14
20860;BME280;10590;48.154;11.514;2023-09-19T13:36:02;95654.59;;;21.46;53.11
20860;BME280;10590;48.154;11.514;2023-09-19T13:41:26;95648.38;;;21.49;52.67
20860;BME280;10590;48.154;11.514;2023-09-19T13:46:49;95644.22;;;22.16;51.05
20860;BME280;10590;48.154;11.514;2023-09-19T13:52:11;95641.88;;;21.97;49.78
20860;BME280;10590;48.154;11.514;2023-09-19T13:57:34;95641.88;;;22.36;47.46
20860;BME280;10590;48.154;11.514;2023-09-19T14:02:56;95631.41;;;22.06;46.83
20860;BME280;10590;48.154;11.514;2023-09-19T14:08:18;95637.63;;;22.17;45.82
20860;BME280;10590;48.154;11.514;2023-09-19T14:13:41;95633.34;;;21.98;45.70
20860;BME280;10590;48.154;11.514;2023-09-19T14:19:07;95641.88;;;21.89;46.98
20860;BME280;10590;48.154;11.514;2023-09-19T14:24:29;95633.34;;;22.27;46.78
20860;BME280;10590;48.154;11.514;2023-09-19T14:29:52;95620.91;;;21.97;47.39
20860;BME280;10590;48.154;11.514;2023-09-19T14:35:14;95612.75;;;21.90;47.92
20860;BME280;10590;48.154;11.514;2023-09-19T14:40:36;95620.13;;;22.00;47.33
20860;BME280;10590;48.154;11.514;2023-09-19T14:46:04;95620.53;;;21.95;47.46
20860;BME280;10590;48.154;11.514;2023-09-19T14:51:29;95602.28;;;21.88;47.93
20860;BME280;10590;48.154;11.514;2023-09-19T14:56:50;95611.59;;;21.98;48.42
20860;BME280;10590;48.154;11.514;2023-09-19T15:02:25;95601.88;;;21.76;48.24
20860;BME280;10590;48.154;11.514;2023-09-19T15:07:47;95605.72;;;21.43;49.31
20860;BME280;10590;48.154;11.514;2023-09-19T15:13:08;95604.06;;;21.17;50.33
20860;BME280;10590;48.154;11.514;2023-09-19T15:18:31;95588.94;;;21.16;49.33
20860;BME280;10590;48.154;11.514;2023-09-19T15:23:54;95607.25;;;21.40;48.19
20860;BME280;10590;48.154;11.514;2023-09-19T15:29:15;95588.16;;;21.12;47.89
20860;BME280;10590;48.154;11.514;2023-09-19T15:34:39;95608.78;;;21.27;48.03
20860;BME280;10590;48.154;11.514;2023-09-19T15:40:01;95602.91;;;21.21;48.16
20860;BME280;10590;48.154;11.514;2023-09-19T15:45:24;95603.31;;;21.20;47.83
20860;BME280;10590;48.154;11.514;2023-09-19T15:50:47;95607.16;;;21.19;49.27
20860;BME280;10590;48.154;11.514;2023-09-19T15:56:09;95603.66;;;21.08;48.73
20860;BME280;10590;48.154;11.514;2023-09-19T16:01:31;95600.88;;;20.86;48.39
20860;BME280;10590;48.154;11.514;2023-09-19T16:06:55;95600.41;;;20.77;48.80
20860;BME280;10590;48.154;11.514;2023-09-19T16:12:17;95615.50;;;20.75;49.98
20860;BME280;10590;48.154;11.514;2023-09-19T16:17:38;95605.81;;;20.70;49.18
20860;BME280;10590;48.154;11.514;2023-09-19T16:23:01;95604.59;;;20.60;49.67
20860;BME280;10590;48.154;11.514;2023-09-19T16:28:23;95606.88;;;20.51;49.75
20860;BME280;10590;48.154;11.514;2023-09-19T16:33:46;95610.75;;;20.50;49.13
20860;BME280;10590;48.154;11.514;2023-09-19T16:39:11;95619.13;;;20.34;50.01
20860;BME280;10590;48.154;11.514;2023-09-19T16:44:33;95621.03;;;20.30;50.65
20860;BME280;10590;48.154;11.514;2023-09-19T16:49:55;95616.72;;;20.19;51.17
20860;BME280;10590;48.154;11.514;2023-09-19T16:55:18;95620.72;;;19.91;51.94
20860;BME280;10590;48.154;11.514;2023-09-19T17:00:43;95618.75;;;19.85;52.77
20860;BME280;10590;48.154;11.514;2023-09-19T17:06:08;95622.53;;;19.73;53.23
20860;BME280;10590;48.154;11.514;2023-09-19T17:11:33;95622.88;;;19.68;53.44
20860;BME280;10590;48.154;11.514;2023-09-19T17:16:54;95623.59;;;19.65;54.03
20860;BME280;10590;48.154;11.514;2023-09-19T17:22:16;95619.16;;;19.46;55.11
20860;BME280;10590;48.154;11.514;2023-09-19T17:27:39;95598.75;;;19.15;55.57
20860;BME280;10590;48.154;11.514;2023-09-19T17:33:01;95607.84;;;19.03;56.70
20860;BME280;10590;48.154;11.514;2023-09-19T17:38:24;95628.75;;;19.06;57.18
20860;BME280;10590;48.154;11.514;2023-09-19T17:43:52;95627.50;;;18.67;58.90
20860;BME280;10590;48.154;11.514;2023-09-19T17:49:14;95626.69;;;18.36;60.07
20860;BME280;10590;48.154;11.514;2023-09-19T17:54:37;95633.59;;;18.34;60.58
20860;BME280;10590;48.154;11.514;2023-09-19T18:00:00;95638.19;;;18.07;62.01
20860;BME280;10590;48.154;11.514;2023-09-19T18:05:22;95656.97;;;18.00;63.08
20860;BME280;10590;48.154;11.514;2023-09-19T18:10:44;95656.50;;;17.94;63.59
20860;BME280;10590;48.154;11.514;2023-09-19T18:16:07;95666.44;;;17.67;63.67
20860;BME280;10590;48.154;11.514;2023-09-19T18:21:29;95659.75;;;17.61;64.07
20860;BME280;10590;48.154;11.514;2023-09-19T18:26:52;95666.03;;;17.46;64.71
20860;BME280;10590;48.154;11.514;2023-09-19T18:32:15;95670.59;;;17.42;64.69
20860;BME280;10590;48.154;11.514;2023-09-19T18:37:36;95664.19;;;17.31;65.92
20860;BME280;10590;48.154;11.514;2023-09-19T18:42:58;95666.63;;;17.16;66.42
20860;BME280;10590;48.154;11.514;2023-09-19T18:48:21;95667.97;;;17.07;67.34
20860;BME280;10590;48.154;11.514;2023-09-19T18:53:43;95675.78;;;17.12;67.47
20860;BME280;10590;48.154;11.514;2023-09-19T18:59:05;95678.28;;;16.66;69.31
20860;BME280;10590;48.154;11.514;2023-09-19T19:04:28;95692.00;;;16.77;69.71
20860;BME280;10590;48.154;11.514;2023-09-19T19:09:50;95696.19;;;16.59;70.60
20860;BME280;10590;48.154;11.514;2023-09-19T19:15:12;95693.34;;;16.20;71.43
20860;BME280;10590;48.154;11.514;2023-09-19T19:20:35;95696.81;;;16.36;71.65
20860;BME280;10590;48.154;11.514;2023-09-19T19:25:59;95693.25;;;16.32;71.90
20860;BME280;10590;48.154;11.514;2023-09-19T19:31:23;95685.38;;;16.23;72.19
20860;BME280;10590;48.154;11.514;2023-09-19T19:36:46;95693.78;;;16.38;72.23
20860;BME280;10590;48.154;11.514;2023-09-19T19:42:13;95686.41;;;16.19;72.75
20860;BME280;10590;48.154;11.514;2023-09-19T19:47:34;95700.13;;;16.30;72.66
20860;BME280;10590;48.154;11.514;2023-09-19T19:52:58;95709.78;;;15.99;74.16
20860;BME280;10590;48.154;11.514;2023-09-19T19:58:19;95695.47;;;15.95;73.86
20860;BME280;10590;48.154;11.514;2023-09-19T20:03:42;95699.44;;;15.70;75.20
20860;BME280;10590;48.154;11.514;2023-09-19T20:09:05;95705.88;;;15.81;75.37
20860;BME280;10590;48.154;11.514;2023-09-19T20:14:29;95697.00;;;15.65;76.21
20860;BME280;10590;48.154;11.514;2023-09-19T20:19:50;95711.56;;;15.64;75.79
20860;BME280;10590;48.154;11.514;2023-09-19T20:25:14;95718.88;;;15.63;75.84
20860;BME280;10590;48.154;11.514;2023-09-19T20:30:38;95715.50;;;15.54;76.80
20860;BME280;10590;48.154;11.514;2023-09-19T20:36:00;95720.44;;;15.64;75.90
20860;BME280;10590;48.154;11.514;2023-09-19T20:41:25;95717.38;;;15.38;76.52
20860;BME280;10590;48.154;11.514;2023-09-19T20:46:46;95728.13;;;15.38;76.93
20860;BME280;10590;48.154;11.514;2023-09-19T20:52:13;95710.19;;;15.42;76.53
20860;BME280;10590;48.154;11.514;2023-09-19T20:57:36;95701.47;;;15.33;75.68
20860;BME280;10590;48.154;11.514;2023-09-19T21:02:58;95735.25;;;15.46;75.33
20860;BME280;10590;48.154;11.514;2023-09-19T21:08:19;95731.88;;;15.49;75.47
20860;BME280;10590;48.154;11.514;2023-09-19T21:13:48;95721.63;;;15.39;75.39
20860;BME280;10590;48.154;11.514;2023-09-19T21:19:10;95738.63;;;15.15;77.26
20860;BME280;10590;48.154;11.514;2023-09-19T21:24:32;95735.09;;;15.26;77.29
20860;BME280;10590;48.154;11.514;2023-09-19T21:29:59;95734.13;;;15.19;77.48
20860;BME280;10590;48.154;11.514;2023-09-19T21:35:20;95737.78;;;15.26;77.83
20860;BME280;10590;48.154;11.514;2023-09-19T21:40:42;95738.47;;;15.23;76.97
20860;BME280;10590;48.154;11.514;2023-09-19T21:46:06;95748.41;;;15.35;76.46
20860;BME280;10590;48.154;11.514;2023-09-19T21:51:29;95732.88;;;15.28;75.82
20860;BME280;10590;48.154;11.514;2023-09-19T21:56:50;95746.59;;;15.39;76.04
20860;BME280;10590;48.154;11.514;2023-09-19T22:02:14;95751.78;;;15.32;76.36
20860;BME280;10590;48.154;11.514;2023-09-19T22:07:35;95742.88;;;15.16;77.04
20860;BME280;10590;48.154;11.514;2023-09-19T22:12:59;95737.34;;;14.96;78.35
20860;BME280;10590;48.154;11.514;2023-09-19T22:18:22;95742.13;;;15.03;78.32
20860;BME280;10590;48.154;11.514;2023-09-19T22:23:44;95747.72;;;15.10;78.32
20860;BME280;10590;48.154;11.514;2023-09-19T22:29:06;95747.75;;;14.98;78.13
20860;BME280;10590;48.154;11.514;2023-09-19T22:34:30;95738.91;;;14.97;78.79
20860;BME280;10590;48.154;11.514;2023-09-19T22:39:51;95744.03;;;15.03;78.80
20860;BME280;10590;48.154;11.514;2023-09-19T22:45:13;95735.97;;;15.03;79.01
20860;BME280;10590;48.154;11.514;2023-09-19T22:50:36;95740.16;;;14.88;79.70
20860;BME280;10590;48.154;11.514;2023-09-19T22:56:00;95747.31;;;14.96;79.59
20860;BME280;10590;48.154;11.514;2023-09-19T23:01:30;95742.16;;;14.91;80.38
20860;BME280;10590;48.154;11.514;2023-09-19T23:06:57;95740.38;;;14.83;81.26
20860;BME280;10590;48.154;11.514;2023-09-19T23:12:25;95743.06;;;14.83;81.30
20860;BME280;10590;48.154;11.514;2023-09-19T23:17:48;95731.78;;;14.77;81.76
20860;BME280;10590;48.154;11.514;2023-09-19T23:23:11;95720.25;;;14.64;81.43
20860;BME280;10590;48.154;11.514;2023-09-19T23:28:37;95736.81;;;14.79;81.12
20860;BME280;10590;48.154;11.514;2023-09-19T23:34:03;95712.53;;;14.63;80.68
20860;BME280;10590;48.154;11.514;2023-09-19T23:39:26;95727.63;;;14.68;81.85
20860;BME280;10590;48.154;11.514;2023-09-19T23:44:50;95705.28;;;14.51;81.70
20860;BME280;10590;48.154;11.514;2023-09-19T23:50:11;95733.44;;;14.70;81.66
20860;BME280;10590;48.154;11.514;2023-09-19T23:55:36;95727.19;;;14.65;81.92
